Time;durP1;ratioP1;P1;durP2;ratioP2;P2;SDS_P1;SDS_P2;PMS_P1;PMS_P2;Temp;Humidity;BMP_temperature;BMP_pressure;BME280_temperature;BME280_humidity;BME280_pressure;Samples;Min_cycle;Max_cycle;Signal;HPM_P1;HPM_P2
2022/07/08 00:00:38;;;;;;;7.17;3.50;;;17.90;99.90;;;;;;5049219;28;20289;-72
2022/07/08 00:03:05;;;;;;;5.67;3.40;;;17.90;99.90;;;;;;5054772;28;20270;-71
2022/07/08 00:05:32;;;;;;;5.40;3.60;;;17.80;99.90;;;;;;5037914;28;20637;-69
2022/07/08 00:07:59;;;;;;;7.77;3.70;;;17.80;99.90;;;;;;5036594;28;20237;-70
2022/07/08 00:10:27;;;;;;;9.13;3.93;;;17.80;99.90;;;;;;5036815;28;20652;-68
2022/07/08 00:12:54;;;;;;;8.77;3.93;;;17.90;99.90;;;;;;5054355;28;20195;-68
2022/07/08 00:15:21;;;;;;;6.17;3.70;;;17.80;99.90;;;;;;5024983;28;20209;-75
2022/07/08 00:17:48;;;;;;;11.63;4.40;;;17.80;99.90;;;;;;5036840;28;20649;-68
2022/07/08 00:20:16;;;;;;;8.93;3.50;;;17.90;99.90;;;;;;5054555;28;20705;-69
2022/07/08 00:22:43;;;;;;;7.77;3.77;;;17.90;99.90;;;;;;5036735;28;20205;-68
2022/07/08 00:25:09;;;;;;;6.80;3.60;;;17.90;99.90;;;;;;5036640;28;20656;-69
2022/07/08 00:27:36;;;;;;;7.27;3.80;;;17.90;99.90;;;;;;5046440;28;20214;-68
2022/07/08 00:30:04;;;;;;;7.40;3.80;;;17.90;99.90;;;;;;5026123;28;20226;-67
2022/07/08 00:32:31;;;;;;;7.07;3.80;;;17.90;99.90;;;;;;5023188;28;20302;-67
2022/07/08 00:34:58;;;;;;;5.00;3.80;;;18.00;99.90;;;;;;5025752;28;20209;-67
2022/07/08 00:37:25;;;;;;;10.03;4.07;;;17.90;99.90;;;;;;5029596;28;20191;-73
2022/07/08 00:39:52;;;;;;;10.37;3.67;;;18.00;99.90;;;;;;5043511;28;20196;-73
2022/07/08 00:42:18;;;;;;;5.37;3.67;;;18.00;99.90;;;;;;5034375;28;20271;-73
2022/07/08 00:44:45;;;;;;;7.83;4.03;;;18.00;99.90;;;;;;5034059;28;20219;-72
2022/07/08 00:47:12;;;;;;;7.27;3.80;;;18.00;99.90;;;;;;5016297;28;20287;-75
2022/07/08 00:49:40;;;;;;;11.10;4.40;;;18.00;99.90;;;;;;5000259;28;20227;-70
2022/07/08 00:52:08;;;;;;;15.10;4.33;;;18.00;99.90;;;;;;5016298;28;20215;-74
2022/07/08 00:54:35;;;;;;;5.23;3.80;;;18.00;99.90;;;;;;5028771;28;20289;-74
2022/07/08 00:57:03;;;;;;;5.03;3.70;;;17.90;99.90;;;;;;5036528;28;20190;-69
2022/07/08 00:59:30;;;;;;;11.70;4.90;;;17.90;99.90;;;;;;5035916;28;20225;-70
2022/07/08 01:01:57;;;;;;;8.00;4.03;;;17.90;99.90;;;;;;5036012;28;20199;-68
2022/07/08 01:04:24;;;;;;;8.20;3.80;;;17.90;99.90;;;;;;5035864;28;20199;-68
2022/07/08 01:06:51;;;;;;;5.93;3.70;;;17.90;99.90;;;;;;5035688;28;20187;-68
2022/07/08 01:09:18;;;;;;;11.67;4.30;;;17.90;99.90;;;;;;5053855;28;20623;-68
2022/07/08 01:11:46;;;;;;;6.83;3.70;;;17.90;99.90;;;;;;5035901;28;20201;-69
2022/07/08 01:14:14;;;;;;;7.03;3.70;;;17.90;99.90;;;;;;5035706;28;20198;-68
2022/07/08 01:16:42;;;;;;;5.80;3.83;;;17.90;99.90;;;;;;5035821;28;20683;-67
2022/07/08 01:19:09;;;;;;;10.03;4.10;;;17.90;99.90;;;;;;5054150;28;20286;-67
2022/07/08 01:21:36;;;;;;;6.87;3.70;;;17.90;99.90;;;;;;5053319;28;20244;-68
2022/07/08 01:24:03;;;;;;;6.17;3.70;;;17.90;99.90;;;;;;5035809;28;20194;-68
2022/07/08 01:26:30;;;;;;;9.00;3.70;;;17.80;99.90;;;;;;5035761;28;20187;-68
2022/07/08 01:28:57;;;;;;;8.73;4.00;;;17.80;99.90;;;;;;5035527;28;20246;-68
2022/07/08 01:31:24;;;;;;;8.50;3.87;;;17.80;99.90;;;;;;5035941;28;20552;-68
2022/07/08 01:33:51;;;;;;;6.97;3.50;;;17.80;99.90;;;;;;5035884;28;20198;-68
2022/07/08 01:36:18;;;;;;;11.30;4.73;;;17.90;99.90;;;;;;5035287;28;20195;-68
2022/07/08 01:38:45;;;;;;;6.80;4.00;;;17.90;99.90;;;;;;5035527;28;20342;-67
2022/07/08 01:41:12;;;;;;;9.83;4.50;;;17.90;99.90;;;;;;5053220;28;20270;-68
2022/07/08 01:43:39;;;;;;;7.80;4.30;;;17.80;99.90;;;;;;5017332;28;20208;-68
2022/07/08 01:46:06;;;;;;;9.00;4.27;;;17.90;99.90;;;;;;5033259;28;20187;-68
2022/07/08 01:48:33;;;;;;;6.77;3.90;;;17.90;99.90;;;;;;5015961;28;20193;-67
2022/07/08 01:50:59;;;;;;;6.63;3.90;;;17.90;99.90;;;;;;5015367;28;20226;-68
2022/07/08 01:53:26;;;;;;;6.93;4.03;;;17.90;99.90;;;;;;5015442;28;20679;-68
2022/07/08 01:55:53;;;;;;;9.17;4.37;;;17.90;99.90;;;;;;5015998;28;20675;-68
2022/07/08 01:58:21;;;;;;;8.73;4.20;;;17.90;99.90;;;;;;5030738;28;20361;-68
2022/07/08 02:00:48;;;;;;;6.83;3.80;;;17.90;99.90;;;;;;5039408;28;20222;-69
2022/07/08 02:03:14;;;;;;;9.87;4.60;;;18.00;99.90;;;;;;5039630;28;20291;-67
2022/07/08 02:05:41;;;;;;;10.17;4.20;;;17.90;99.90;;;;;;5056883;28;20604;-68
2022/07/08 02:08:09;;;;;;;7.10;4.00;;;17.90;99.90;;;;;;5057076;28;20321;-67
2022/07/08 02:13:21;;;;;;;7.60;4.50;;;17.80;99.90;;;;;;5032069;28;20207;-67
2022/07/08 02:15:48;;;;;;;9.10;4.30;;;17.80;99.90;;;;;;5019422;28;20294;-67
2022/07/08 02:18:15;;;;;;;8.47;4.30;;;17.70;99.90;;;;;;5036887;28;20210;-67
2022/07/08 02:20:42;;;;;;;7.87;4.13;;;17.80;99.90;;;;;;5019172;28;20199;-67
2022/07/08 02:23:09;;;;;;;8.17;4.00;;;17.80;99.90;;;;;;5019310;28;20283;-68
2022/07/08 02:25:36;;;;;;;7.40;3.93;;;17.90;99.90;;;;;;5036997;28;20355;-68
2022/07/08 02:28:03;;;;;;;6.77;3.87;;;17.80;99.90;;;;;;5019261;28;20230;-67
2022/07/08 02:30:30;;;;;;;9.07;3.97;;;17.80;99.90;;;;;;5036115;28;20232;-67
2022/07/08 02:32:57;;;;;;;7.63;4.30;;;17.80;99.90;;;;;;5038855;28;20206;-68
2022/07/08 02:35:24;;;;;;;10.90;4.50;;;17.80;99.90;;;;;;5056760;28;20205;-68
2022/07/08 02:37:51;;;;;;;12.73;4.67;;;17.80;99.90;;;;;;5038719;28;20203;-67
2022/07/08 02:40:18;;;;;;;19.37;5.30;;;17.80;99.90;;;;;;5038868;28;20199;-66
2022/07/08 02:42:44;;;;;;;10.63;4.33;;;17.80;99.90;;;;;;5038540;28;20194;-67
2022/07/08 02:45:12;;;;;;;7.93;3.80;;;17.80;99.90;;;;;;5038568;28;20198;-67
2022/07/08 02:47:38;;;;;;;7.73;4.10;;;17.80;99.90;;;;;;5038547;28;20605;-68
2022/07/08 02:50:06;;;;;;;7.40;3.87;;;17.80;99.90;;;;;;5056116;28;20241;-68
2022/07/08 02:52:33;;;;;;;7.23;4.27;;;17.70;99.90;;;;;;5038247;28;20187;-68
2022/07/08 02:55:00;;;;;;;8.80;4.33;;;17.70;99.90;;;;;;5038705;28;20203;-68
2022/07/08 02:57:27;;;;;;;8.17;4.10;;;17.80;99.90;;;;;;5038545;28;20202;-68
2022/07/08 02:59:54;;;;;;;6.97;4.00;;;17.70;99.90;;;;;;5038290;28;20329;-68
2022/07/08 03:02:21;;;;;;;6.37;3.60;;;17.80;99.90;;;;;;5056179;28;20194;-68
2022/07/08 03:04:48;;;;;;;15.00;4.90;;;17.70;99.90;;;;;;5038516;28;20198;-68
2022/07/08 03:07:15;;;;;;;10.47;4.53;;;17.70;99.90;;;;;;5038200;28;20202;-68
2022/07/08 03:09:42;;;;;;;7.97;5.00;;;17.60;99.90;;;;;;5021211;28;20235;-68
2022/07/08 03:12:09;;;;;;;10.80;4.93;;;17.60;99.90;;;;;;5055904;28;20258;-68
2022/07/08 03:14:36;;;;;;;7.40;4.97;;;17.60;99.90;;;;;;5038146;28;20198;-69
2022/07/08 03:17:03;;;;;;;6.70;4.63;;;17.60;99.90;;;;;;5037895;28;20199;-68
2022/07/08 03:19:30;;;;;;;6.50;4.40;;;17.60;99.90;;;;;;5038616;28;20229;-68
2022/07/08 03:21:57;;;;;;;9.87;4.80;;;17.70;99.90;;;;;;5021667;28;20290;-69
2022/07/08 03:24:23;;;;;;;8.20;4.97;;;17.80;99.90;;;;;;5037829;28;20306;-69
2022/07/08 03:26:50;;;;;;;13.37;5.37;;;17.80;99.90;;;;;;5037812;28;20206;-69
2022/07/08 03:29:17;;;;;;;12.00;5.00;;;17.70;99.90;;;;;;5037920;28;20222;-69
2022/07/08 03:31:44;;;;;;;8.83;5.20;;;17.80;99.90;;;;;;5037633;28;20727;-68
2022/07/08 03:34:11;;;;;;;8.20;5.00;;;17.80;99.90;;;;;;5037755;28;20207;-68
2022/07/08 03:36:39;;;;;;;9.80;5.10;;;17.80;99.90;;;;;;5037585;28;20221;-68
2022/07/08 03:39:05;;;;;;;8.17;4.50;;;17.70;99.90;;;;;;5055423;28;20218;-69
2022/07/08 03:41:33;;;;;;;12.30;4.87;;;17.70;99.90;;;;;;5037563;28;20641;-68
2022/07/08 03:44:01;;;;;;;10.90;4.97;;;17.70;99.90;;;;;;5037646;28;20217;-68
2022/07/08 03:46:28;;;;;;;11.13;5.00;;;17.80;99.90;;;;;;5055127;28;20195;-71
2022/07/08 03:48:55;;;;;;;10.00;4.87;;;17.90;99.90;;;;;;5055341;28;20187;-69
2022/07/08 03:51:23;;;;;;;10.90;5.13;;;17.90;99.90;;;;;;5037498;28;20321;-68
2022/07/08 03:53:50;;;;;;;9.90;4.73;;;18.00;99.90;;;;;;5037689;28;20191;-69
2022/07/08 03:56:17;;;;;;;15.23;5.07;;;18.10;99.90;;;;;;5037312;28;20298;-68
2022/07/08 03:58:44;;;;;;;9.87;5.20;;;18.10;99.90;;;;;;5037496;28;20185;-69
2022/07/08 04:01:11;;;;;;;8.43;5.03;;;18.00;99.90;;;;;;5054700;28;20222;-69
2022/07/08 04:03:38;;;;;;;8.63;4.90;;;18.10;99.90;;;;;;5054975;28;20183;-75
2022/07/08 04:06:05;;;;;;;9.10;4.87;;;18.10;99.90;;;;;;5037113;28;20302;-74
2022/07/08 04:08:32;;;;;;;11.57;5.10;;;17.90;99.90;;;;;;5036921;28;20254;-69
2022/07/08 04:11:00;;;;;;;8.80;4.87;;;17.90;99.90;;;;;;5037044;28;20230;-69
2022/07/08 04:13:27;;;;;;;10.73;4.47;;;17.90;99.90;;;;;;5036922;28;20205;-68
2022/07/08 04:15:55;;;;;;;15.17;5.30;;;18.00;99.90;;;;;;5054684;28;20198;-69
2022/07/08 04:18:24;;;;;;;16.93;5.77;;;18.10;99.90;;;;;;5036893;28;20191;-68
2022/07/08 04:20:52;;;;;;;8.87;5.07;;;18.20;99.90;;;;;;5036282;28;20198;-68
2022/07/08 04:23:19;;;;;;;9.07;4.70;;;18.20;99.90;;;;;;5054580;28;20644;-69
2022/07/08 04:25:46;;;;;;;8.33;4.90;;;18.20;99.90;;;;;;5054455;28;20210;-69
2022/07/08 04:28:13;;;;;;;7.33;4.57;;;18.20;99.90;;;;;;5036646;28;20278;-69
2022/07/08 04:30:40;;;;;;;9.60;4.60;;;18.30;99.90;;;;;;5036164;28;20689;-68
2022/07/08 04:33:08;;;;;;;9.07;4.53;;;18.30;99.90;;;;;;5036523;28;20206;-69
2022/07/08 04:35:36;;;;;;;6.73;4.60;;;18.30;99.90;;;;;;5054469;28;20302;-69
2022/07/08 04:38:03;;;;;;;8.53;4.67;;;18.40;99.90;;;;;;5054213;28;20385;-69
2022/07/08 04:40:30;;;;;;;9.50;4.80;;;18.50;99.90;;;;;;5036562;28;20203;-69
2022/07/08 04:42:57;;;;;;;9.80;4.80;;;18.60;99.90;;;;;;5036262;28;20198;-69
2022/07/08 04:45:24;;;;;;;10.17;5.00;;;18.60;99.90;;;;;;5036075;28;20289;-69
2022/07/08 04:47:52;;;;;;;6.50;4.80;;;18.50;99.90;;;;;;5036711;28;20203;-68
2022/07/08 04:50:20;;;;;;;9.00;4.90;;;18.60;99.90;;;;;;5036311;28;20237;-69
2022/07/08 04:52:47;;;;;;;11.77;4.97;;;18.70;99.90;;;;;;5036126;28;20210;-68
2022/07/08 04:55:31;;;;;;;8.20;4.63;;;18.70;99.90;;;;;;5036100;28;20640;-70
2022/07/08 04:58:03;;;;;;;6.43;4.40;;;18.80;99.90;;;;;;5035945;28;20198;-68
2022/07/08 05:00:31;;;;;;;8.63;4.60;;;18.90;99.90;;;;;;5036092;28;20297;-67
2022/07/08 05:02:59;;;;;;;10.50;4.67;;;19.00;99.90;;;;;;5035995;28;20202;-69
2022/07/08 05:05:27;;;;;;;8.97;4.60;;;19.00;99.90;;;;;;5053847;28;20218;-69
2022/07/08 05:07:56;;;;;;;7.10;4.60;;;19.00;99.90;;;;;;5035706;28;20227;-68
2022/07/08 05:10:24;;;;;;;8.47;4.83;;;19.20;99.90;;;;;;5035681;28;20598;-68
2022/07/08 05:12:52;;;;;;;7.47;4.50;;;19.30;99.90;;;;;;5035755;28;20223;-69
2022/07/08 05:15:19;;;;;;;8.60;4.80;;;19.30;99.90;;;;;;5035673;28;20241;-68
2022/07/08 05:17:47;;;;;;;12.57;4.87;;;19.40;99.90;;;;;;5035842;28;20205;-68
2022/07/08 05:20:14;;;;;;;11.00;5.63;;;19.40;99.90;;;;;;5035702;28;20257;-68
2022/07/08 05:22:42;;;;;;;14.37;5.33;;;19.30;99.90;;;;;;5053660;28;20593;-68
2022/07/08 05:25:09;;;;;;;9.60;4.70;;;19.40;99.90;;;;;;5035869;28;20210;-68
2022/07/08 05:27:37;;;;;;;9.93;4.77;;;19.40;99.90;;;;;;5035510;28;20218;-68
2022/07/08 05:30:05;;;;;;;8.00;4.80;;;19.30;99.90;;;;;;5035392;28;20226;-68
2022/07/08 05:32:33;;;;;;;11.63;5.20;;;19.20;99.90;;;;;;5035632;28;20229;-68
2022/07/08 05:35:04;;;;;;;11.03;4.83;;;19.20;99.90;;;;;;5035614;28;20199;-68
2022/07/08 05:37:32;;;;;;;10.53;4.87;;;19.30;99.90;;;;;;5035477;28;20213;-68
2022/07/08 05:39:59;;;;;;;12.33;4.87;;;19.30;99.90;;;;;;5035410;28;20218;-69
2022/07/08 05:42:26;;;;;;;8.30;4.83;;;19.40;99.90;;;;;;5035272;28;20202;-68
2022/07/08 05:44:53;;;;;;;13.37;4.73;;;19.40;99.90;;;;;;5035365;28;20187;-69
2022/07/08 05:47:19;;;;;;;13.53;5.27;;;19.40;99.90;;;;;;5035510;28;20209;-69
2022/07/08 05:49:46;;;;;;;10.47;4.83;;;19.50;99.90;;;;;;5035363;28;20252;-69
2022/07/08 05:52:13;;;;;;;8.40;4.33;;;19.60;99.90;;;;;;5035068;28;20237;-69
2022/07/08 05:54:45;;;;;;;10.07;4.50;;;19.70;99.90;;;;;;5035186;28;20289;-69
2022/07/08 05:57:13;;;;;;;9.43;4.10;;;19.80;99.90;;;;;;5035446;28;20222;-69
2022/07/08 05:59:41;;;;;;;8.90;4.10;;;19.90;99.90;;;;;;5035183;28;20190;-68
2022/07/08 06:02:09;;;;;;;10.70;4.50;;;20.20;99.90;;;;;;5035365;28;20551;-69
2022/07/08 06:04:36;;;;;;;12.20;4.50;;;20.30;99.90;;;;;;5053121;28;20709;-68
2022/07/08 06:07:03;;;;;;;9.00;3.93;;;20.30;99.90;;;;;;5035284;28;20640;-70
2022/07/08 06:09:30;;;;;;;9.47;4.13;;;20.60;99.90;;;;;;5034963;28;20238;-70
2022/07/08 06:11:57;;;;;;;10.83;4.17;;;20.60;99.90;;;;;;5035073;28;20245;-68
2022/07/08 06:14:24;;;;;;;8.70;4.17;;;20.60;99.90;;;;;;5035113;28;20207;-70
2022/07/08 06:16:51;;;;;;;9.43;4.00;;;20.70;99.90;;;;;;5034896;28;20550;-68
2022/07/08 06:19:18;;;;;;;7.47;3.93;;;20.80;99.90;;;;;;5035061;28;20191;-71
2022/07/08 06:21:45;;;;;;;10.03;4.50;;;20.90;99.90;;;;;;5035225;28;20190;-68
2022/07/08 06:24:12;;;;;;;8.93;3.97;;;21.10;99.90;;;;;;5052856;28;21031;-68
2022/07/08 06:26:39;;;;;;;11.90;4.17;;;21.40;99.90;;;;;;5035250;28;20226;-68
2022/07/08 06:29:06;;;;;;;7.40;3.87;;;21.60;99.90;;;;;;5052792;28;20609;-68
2022/07/08 06:31:33;;;;;;;8.67;3.70;;;21.70;99.90;;;;;;5034790;28;20230;-68
2022/07/08 06:34:00;;;;;;;8.67;3.50;;;21.80;99.90;;;;;;5035121;28;20195;-68
2022/07/08 06:36:27;;;;;;;8.67;3.50;;;21.90;99.90;;;;;;5034605;28;20232;-68
2022/07/08 06:38:54;;;;;;;9.50;3.17;;;22.10;99.90;;;;;;5034639;28;20237;-65
2022/07/08 06:41:29;;;;;;;5.10;2.60;;;22.20;99.90;;;;;;5035025;28;20562;-69
2022/07/08 06:43:56;;;;;;;7.57;2.40;;;22.00;99.90;;;;;;5053140;28;20191;-69
2022/07/08 06:46:24;;;;;;;8.10;2.43;;;22.10;99.90;;;;;;5038681;28;20211;-68
2022/07/08 06:48:52;;;;;;;4.90;2.40;;;22.30;99.90;;;;;;5038720;28;20199;-68
2022/07/08 06:51:19;;;;;;;8.60;2.20;;;22.40;99.90;;;;;;5037919;28;20321;-68
2022/07/08 06:56:31;;;;;;;5.60;2.40;;;22.70;99.90;;;;;;5038424;28;20294;-66
2022/07/08 06:58:58;;;;;;;5.03;2.10;;;22.70;99.90;;;;;;5038225;28;20226;-68
2022/07/08 07:01:25;;;;;;;4.00;1.80;;;22.70;99.90;;;;;;5055962;28;20198;-67
2022/07/08 07:03:52;;;;;;;7.80;2.27;;;22.60;99.90;;;;;;5038315;28;20286;-70
2022/07/08 07:06:19;;;;;;;6.93;1.77;;;22.60;99.90;;;;;;5055805;28;20540;-68
2022/07/08 07:08:46;;;;;;;4.00;1.80;;;22.80;99.90;;;;;;5038180;28;20250;-68
2022/07/08 07:11:13;;;;;;;4.07;1.67;;;22.70;99.90;;;;;;5038288;28;20667;-67
2022/07/08 07:13:41;;;;;;;4.22;1.90;;;22.70;99.90;;;;;;5037710;28;20636;-68
2022/07/08 07:16:07;;;;;;;8.20;2.30;;;22.40;99.90;;;;;;5038154;28;20202;-69
2022/07/08 07:18:34;;;;;;;9.30;2.17;;;22.20;99.90;;;;;;5055778;28;20189;-68
2022/07/08 07:21:02;;;;;;;7.57;2.10;;;22.00;99.90;;;;;;5021121;28;20663;-68
2022/07/08 07:23:28;;;;;;;7.37;2.50;;;22.10;99.90;;;;;;5037957;28;20195;-68
2022/07/08 07:25:56;;;;;;;9.17;2.83;;;22.10;99.90;;;;;;5055738;28;20218;-69
2022/07/08 07:28:23;;;;;;;6.60;2.85;;;21.90;99.90;;;;;;5037931;28;20202;-69
2022/07/08 07:30:50;;;;;;;8.17;3.10;;;21.90;99.90;;;;;;5037874;28;20237;-66
2022/07/08 07:33:17;;;;;;;9.93;3.43;;;22.10;99.90;;;;;;5037898;28;20658;-67
2022/07/08 07:35:44;;;;;;;8.60;4.60;;;22.30;99.90;;;;;;5037692;28;20214;-67
2022/07/08 07:38:11;;;;;;;10.37;3.87;;;22.00;99.90;;;;;;5037666;28;20589;-68
2022/07/08 07:40:38;;;;;;;7.45;3.78;;;22.10;99.90;;;;;;5037593;28;20225;-69
2022/07/08 07:43:05;;;;;;;23.10;4.37;;;22.20;99.90;;;;;;5055582;28;20190;-70
2022/07/08 07:45:32;;;;;;;5.63;3.10;;;22.10;99.90;;;;;;5037522;28;20216;-69
2022/07/08 07:47:59;;;;;;;6.30;3.03;;;22.00;99.90;;;;;;5054913;28;20365;-71
2022/07/08 07:50:26;;;;;;;5.63;3.07;;;21.80;99.90;;;;;;5054977;28;20264;-67
2022/07/08 07:52:54;;;;;;;6.13;3.33;;;21.80;99.90;;;;;;5037359;28;20252;-68
2022/07/08 07:55:21;;;;;;;13.17;4.70;;;21.90;99.90;;;;;;5037104;28;20278;-69
2022/07/08 07:57:49;;;;;;;5.33;3.53;;;21.90;99.90;;;;;;5036914;28;20199;-69
2022/07/08 08:00:16;;;;;;;7.53;4.00;;;21.50;99.90;;;;;;5054799;28;20640;-69
2022/07/08 08:02:44;;;;;;;6.43;3.83;;;21.60;99.90;;;;;;5036979;28;20209;-69
2022/07/08 08:05:11;;;;;;;4.80;2.83;;;21.60;99.90;;;;;;5037307;28;20558;-69
2022/07/08 08:07:40;;;;;;;6.27;3.47;;;21.80;99.90;;;;;;5036760;28;20195;-70
2022/07/08 08:10:08;;;;;;;5.00;3.23;;;21.90;99.90;;;;;;5036994;28;20203;-70
2022/07/08 08:12:35;;;;;;;5.53;3.33;;;22.00;99.90;;;;;;5037177;28;20250;-69
2022/07/08 08:15:02;;;;;;;9.47;3.27;;;22.10;99.90;;;;;;5036767;28;20194;-69
2022/07/08 08:17:41;;;;;;;5.57;4.00;;;22.10;99.90;;;;;;5033217;28;20188;-69
2022/07/08 08:20:12;;;;;;;6.37;4.77;;;22.30;99.90;;;;;;5035481;28;20186;-68
2022/07/08 08:22:40;;;;;;;8.20;5.10;;;22.00;99.90;;;;;;5037100;28;20256;-69
2022/07/08 08:25:28;;;;;;;10.60;5.77;;;22.20;99.90;;;;;;5054386;28;20644;-68
2022/07/08 08:27:56;;;;;;;7.57;5.73;;;21.90;99.90;;;;;;5036461;28;20195;-69
2022/07/08 08:30:23;;;;;;;10.63;5.38;;;22.40;99.90;;;;;;5050445;28;20681;-69
2022/07/08 08:32:50;;;;;;;7.57;5.70;;;23.00;99.90;;;;;;5039896;28;20198;-70
2022/07/08 08:35:17;;;;;;;10.27;5.20;;;23.60;99.90;;;;;;5036260;28;20241;-70
2022/07/08 08:37:45;;;;;;;6.05;4.32;;;24.20;99.90;;;;;;5036392;28;20222;-71
2022/07/08 08:40:13;;;;;;;5.50;4.10;;;24.50;99.90;;;;;;5036205;28;20290;-70
2022/07/08 08:42:41;;;;;;;9.98;4.55;;;25.40;99.90;;;;;;5036319;28;20195;-70
2022/07/08 08:45:09;;;;;;;5.10;4.25;;;26.00;99.90;;;;;;5035989;28;20671;-70
2022/07/08 08:47:37;;;;;;;5.22;4.07;;;26.00;99.90;;;;;;5036229;28;20230;-70
2022/07/08 08:52:55;;;;;;;8.50;4.50;;;25.70;99.90;;;;;;5035957;28;20662;-70
2022/07/08 08:55:35;;;;;;;5.93;4.28;;;25.00;99.90;;;;;;5035506;28;20224;-70
2022/07/08 08:58:04;;;;;;;6.70;4.50;;;24.10;99.90;;;;;;5036366;28;20719;-69
2022/07/08 09:00:33;;;;;;;10.00;4.85;;;24.00;99.90;;;;;;5035836;28;20222;-73
2022/07/08 09:03:02;;;;;;;6.45;4.53;;;23.70;99.90;;;;;;5036015;28;20195;-70
2022/07/08 09:05:30;;;;;;;6.07;4.32;;;23.70;99.90;;;;;;5035929;28;20268;-70
2022/07/08 09:07:57;;;;;;;6.18;5.25;;;23.70;99.90;;;;;;5035464;28;20640;-69
2022/07/08 09:10:26;;;;;;;6.53;5.25;;;24.10;99.90;;;;;;5036039;28;20209;-71
2022/07/08 09:13:08;;;;;;;6.50;5.13;;;24.50;99.90;;;;;;5035743;28;20300;-70
2022/07/08 09:15:46;;;;;;;5.25;4.43;;;25.40;99.90;;;;;;5033340;28;20195;-70
2022/07/08 09:18:18;;;;;;;9.13;4.90;;;24.70;99.90;;;;;;5016369;28;20290;-70
2022/07/08 09:20:50;;;;;;;4.57;3.00;;;23.90;99.90;;;;;;5033654;28;20188;-68
2022/07/08 09:23:19;;;;;;;5.53;3.50;;;23.60;99.90;;;;;;5016105;28;20276;-69
2022/07/08 09:25:50;;;;;;;4.38;3.13;;;23.60;99.90;;;;;;5032524;28;20183;-70
2022/07/08 09:28:30;;;;;;;5.00;3.30;;;24.10;99.90;;;;;;5015910;28;20278;-68
2022/07/08 09:31:00;;;;;;;4.72;3.03;;;24.60;99.90;;;;;;5032192;28;20222;-68
2022/07/08 09:33:28;;;;;;;3.67;2.55;;;24.90;99.90;;;;;;5032273;28;20207;-79
2022/07/08 09:36:00;;;;;;;5.28;2.75;;;24.50;99.90;;;;;;5015912;28;20192;-76
2022/07/08 09:38:35;;;;;;;5.30;2.63;;;23.90;99.90;;;;;;5032308;28;20257;-75
2022/07/08 09:41:03;;;;;;;7.68;3.00;;;23.30;99.90;;;;;;5037850;28;20217;-74
2022/07/08 09:43:42;;;;;;;6.05;2.40;;;22.80;99.90;;;;;;5034171;28;20248;-72
2022/07/08 09:46:09;;;;;;;5.05;2.65;;;22.00;99.90;;;;;;5031275;28;20676;-71
2022/07/08 09:48:36;;;;;;;6.33;2.70;;;21.50;99.90;;;;;;5033447;28;20274;-71
2022/07/08 09:51:10;;;;;;;5.17;2.63;;;21.30;99.90;;;;;;5032897;28;20305;-71
2022/07/08 09:53:39;;;;;;;3.40;2.53;;;21.10;99.90;;;;;;5042827;28;20691;-74
2022/07/08 09:56:08;;;;;;;6.53;2.80;;;20.90;99.90;;;;;;5035189;28;20671;-71
2022/07/08 09:58:36;;;;;;;5.47;2.43;;;20.80;99.90;;;;;;5035206;28;20662;-75
2022/07/08 10:01:04;;;;;;;4.27;2.30;;;20.70;99.90;;;;;;5051976;28;20246;-73
2022/07/08 10:03:32;;;;;;;3.20;2.23;;;20.90;99.90;;;;;;5015409;28;20199;-73
2022/07/08 10:06:01;;;;;;;3.37;2.30;;;21.00;99.90;;;;;;5018745;28;20222;-72
2022/07/08 10:08:28;;;;;;;2.77;2.30;;;21.30;99.90;;;;;;5024290;28;20746;-71
2022/07/08 10:10:57;;;;;;;3.40;2.33;;;21.60;99.90;;;;;;5025251;28;20756;-71
2022/07/08 10:13:26;;;;;;;3.90;2.60;;;21.80;99.90;;;;;;5024026;28;20201;-71
2022/07/08 10:15:57;;;;;;;5.37;3.13;;;21.80;99.90;;;;;;5021161;28;20317;-71
2022/07/08 10:18:44;;;;;;;4.77;3.27;;;21.90;99.90;;;;;;5028192;28;20202;-74
2022/07/08 10:21:16;;;;;;;4.77;3.07;;;21.90;99.90;;;;;;5038059;28;20195;-72
2022/07/08 10:23:50;;;;;;;4.87;3.20;;;21.90;99.90;;;;;;5034485;28;20700;-74
2022/07/08 10:26:27;;;;;;;4.67;3.20;;;22.00;99.90;;;;;;5028840;28;20656;-72
2022/07/08 10:29:03;;;;;;;4.70;3.10;;;22.10;99.90;;;;;;5038079;28;20755;-70
2022/07/08 10:31:44;;;;;;;6.30;3.77;;;22.20;99.90;;;;;;5037198;28;20323;-71
2022/07/08 10:34:13;;;;;;;8.97;4.37;;;22.10;99.90;;;;;;5038617;28;20241;-72
2022/07/08 10:36:50;;;;;;;23.03;7.73;;;21.90;99.90;;;;;;5038719;28;20207;-72
2022/07/08 10:39:37;;;;;;;11.00;4.23;;;21.60;99.90;;;;;;5039603;28;20203;-79
2022/07/08 10:42:08;;;;;;;6.80;3.70;;;20.30;99.90;;;;;;5051533;28;20634;-76
2022/07/08 10:44:45;;;;;;;4.23;2.60;;;19.70;99.90;;;;;;5030827;28;20198;-75
2022/07/08 10:47:29;;;;;;;4.67;2.50;;;19.30;99.90;;;;;;5038195;28;20285;-80
2022/07/08 10:50:08;;;;;;;5.10;3.10;;;18.90;99.90;;;;;;5038338;28;20190;-76
2022/07/08 10:52:40;;;;;;;5.87;2.97;;;18.70;99.90;;;;;;5038265;28;20223;-74
2022/07/08 10:55:09;;;;;;;5.17;3.60;;;18.70;99.90;;;;;;5027905;28;20286;-75
2022/07/08 10:57:36;;;;;;;4.60;3.60;;;18.70;99.90;;;;;;5041559;28;20196;-75
2022/07/08 11:00:05;;;;;;;7.10;3.57;;;18.70;99.90;;;;;;5047264;28;20187;-77
2022/07/08 11:02:32;;;;;;;4.83;3.90;;;18.80;99.90;;;;;;5031656;28;20286;-76
2022/07/08 11:04:59;;;;;;;7.40;3.90;;;18.90;99.90;;;;;;5033476;28;20241;-75
2022/07/08 11:07:28;;;;;;;8.33;4.03;;;18.90;99.90;;;;;;5038439;28;20214;-75
2022/07/08 11:09:56;;;;;;;4.87;3.90;;;19.00;99.90;;;;;;5038305;28;20291;-78
2022/07/08 11:12:31;;;;;;;5.70;4.10;;;19.00;99.90;;;;;;5037954;28;20342;-72
2022/07/08 11:14:59;;;;;;;7.67;4.47;;;19.00;99.90;;;;;;5035847;28;20643;-78
2022/07/08 11:17:46;;;;;;;7.27;4.37;;;18.90;99.90;;;;;;5037093;28;20241;-74
2022/07/08 11:20:16;;;;;;;6.27;3.70;;;18.80;99.90;;;;;;5037696;28;20213;-75
2022/07/08 11:22:44;;;;;;;5.73;3.63;;;18.70;99.90;;;;;;5037421;28;20287;-72
2022/07/08 11:25:15;;;;;;;7.13;3.50;;;18.60;99.90;;;;;;5037929;28;20190;-74
2022/07/08 11:27:43;;;;;;;5.90;4.17;;;18.60;99.90;;;;;;5052597;28;20184;-75
2022/07/08 11:30:14;;;;;;;6.03;3.67;;;18.70;99.90;;;;;;5037949;28;20179;-73
2022/07/08 11:32:42;;;;;;;8.03;3.40;;;18.50;99.90;;;;;;5037234;28;20760;-73
2022/07/08 11:35:10;;;;;;;5.73;3.47;;;18.50;99.90;;;;;;5037706;28;20578;-76
2022/07/08 11:37:44;;;;;;;10.23;3.57;;;18.50;99.90;;;;;;5037515;28;20195;-76
2022/07/08 11:40:13;;;;;;;5.37;3.93;;;18.50;99.90;;;;;;5055352;28;20190;-76
2022/07/08 11:42:41;;;;;;;5.80;4.13;;;18.40;99.90;;;;;;5037214;28;20195;-77
2022/07/08 11:45:12;;;;;;;5.87;4.17;;;18.50;99.90;;;;;;5055335;28;20190;-78
2022/07/08 11:47:39;;;;;;;6.10;4.30;;;18.60;99.90;;;;;;5037250;28;20230;-78
2022/07/08 11:50:12;;;;;;;7.60;4.40;;;18.70;99.90;;;;;;5037127;28;20294;-70
2022/07/08 11:52:39;;;;;;;6.90;4.63;;;18.90;99.90;;;;;;5036945;28;20215;-79
2022/07/08 11:55:07;;;;;;;5.53;4.10;;;19.10;99.90;;;;;;5055091;28;20198;-81
2022/07/08 11:57:40;;;;;;;5.97;4.17;;;19.20;99.90;;;;;;5037014;28;20290;-75
2022/07/08 12:00:07;;;;;;;5.13;3.97;;;19.40;99.90;;;;;;5036929;28;20195;-78
2022/07/08 12:02:36;;;;;;;4.70;4.07;;;19.60;99.90;;;;;;5036750;28;20206;-75
2022/07/08 12:05:10;;;;;;;7.13;4.50;;;19.70;99.90;;;;;;5037889;28;20639;-79
2022/07/08 12:07:38;;;;;;;8.30;4.40;;;19.80;99.90;;;;;;5054888;28;20579;-82
2022/07/08 12:10:06;;;;;;;4.97;4.33;;;19.80;99.90;;;;;;5054835;28;20187;-77
2022/07/08 12:12:35;;;;;;;5.60;4.57;;;19.80;99.90;;;;;;5036734;28;20733;-77
2022/07/08 12:15:16;;;;;;;4.97;4.00;;;20.10;99.90;;;;;;5036611;28;20233;-77
2022/07/08 12:17:57;;;;;;;5.07;4.57;;;20.50;99.90;;;;;;5036944;28;20252;-74
2022/07/08 12:23:00;;;;;;;6.50;5.17;;;20.80;99.90;;;;;;5055593;23;20608;-78
2022/07/08 12:25:28;;;;;;;7.10;5.17;;;20.90;99.90;;;;;;4997287;28;20246;-81
2022/07/08 12:28:01;;;;;;;7.90;5.00;;;20.90;99.90;;;;;;4994876;28;20196;-81
2022/07/08 12:30:30;;;;;;;6.27;5.13;;;20.90;99.90;;;;;;5008820;28;20279;-79
2022/07/08 12:33:02;;;;;;;8.73;5.10;;;20.90;99.90;;;;;;4992074;28;20220;-79
2022/07/08 12:35:47;;;;;;;11.50;5.30;;;20.90;99.90;;;;;;5013586;28;20189;-81
2022/07/08 12:38:15;;;;;;;4.97;3.93;;;20.70;99.90;;;;;;4996660;28;20689;-76
2022/07/08 12:40:43;;;;;;;10.73;4.73;;;20.60;99.90;;;;;;4996041;28;20291;-81
2022/07/08 12:43:58;;;;;;;7.43;4.47;;;20.70;99.90;;;;;;5013497;28;20258;-82
2022/07/08 12:46:28;;;;;;;5.13;3.90;;;20.70;99.90;;;;;;4995425;28;20205;-79
2022/07/08 12:48:56;;;;;;;4.63;3.80;;;20.60;99.90;;;;;;4996288;28;20203;-78
2022/07/08 12:51:24;;;;;;;5.37;4.00;;;20.50;99.90;;;;;;4995953;28;20262;-79
2022/07/08 12:53:53;;;;;;;4.77;3.90;;;20.70;99.90;;;;;;4995958;28;20208;-82
2022/07/08 12:56:21;;;;;;;4.57;3.30;;;21.10;99.90;;;;;;4996037;28;20212;-82
2022/07/08 12:58:48;;;;;;;1.83;1.50;;;22.20;99.90;;;;;;4995853;28;20220;-83
2022/07/08 13:01:15;;;;;;;1.60;1.50;;;22.70;99.90;;;;;;4995591;28;20239;-81
2022/07/08 13:03:43;;;;;;;4.47;1.90;;;22.90;99.90;;;;;;4995912;28;20304;-84